createdAt,value
2018-02-25T00:00:29.356Z,993.85
2018-02-25T00:01:36.108Z,993.78
2018-02-25T00:02:42.844Z,993.77
2018-02-25T00:03:49.672Z,993.73
2018-02-25T00:04:56.416Z,993.81
2018-02-25T00:06:03.179Z,993.73
2018-02-25T00:07:09.946Z,993.78
2018-02-25T00:08:16.783Z,993.72
2018-02-25T00:09:23.711Z,993.73
2018-02-25T00:10:30.553Z,993.70
2018-02-25T00:11:37.316Z,993.74
2018-02-25T00:12:44.032Z,993.74
2018-02-25T00:13:50.795Z,993.68
2018-02-25T00:14:57.653Z,993.83
2018-02-25T00:16:04.381Z,993.76
2018-02-25T00:17:11.148Z,993.73
2018-02-25T00:18:17.903Z,993.71
2018-02-25T00:19:24.607Z,993.72
2018-02-25T00:20:31.407Z,993.73
2018-02-25T00:21:38.165Z,993.71
2018-02-25T00:22:44.988Z,993.71
2018-02-25T00:23:51.770Z,993.65
2018-02-25T00:24:58.670Z,993.68
2018-02-25T00:26:05.412Z,993.71
2018-02-25T00:27:12.145Z,993.74
2018-02-25T00:28:19.025Z,993.76
2018-02-25T00:29:25.814Z,993.68
2018-02-25T00:30:32.562Z,993.75
2018-02-25T00:31:39.436Z,993.84
2018-02-25T00:32:46.316Z,993.75
2018-02-25T00:33:53.089Z,993.76
2018-02-25T00:34:59.897Z,993.79
2018-02-25T00:36:06.687Z,993.83
2018-02-25T00:37:13.403Z,993.79
2018-02-25T00:38:20.190Z,993.84
2018-02-25T00:39:27.001Z,993.83
2018-02-25T00:40:33.758Z,993.86
2018-02-25T00:41:40.528Z,993.82
2018-02-25T00:42:47.255Z,993.81
2018-02-25T00:43:54.156Z,993.88
2018-02-25T00:45:00.898Z,993.80
2018-02-25T00:46:12.934Z,993.82
2018-02-25T00:47:14.845Z,993.83
2018-02-25T00:48:21.571Z,993.79
2018-02-25T00:49:28.430Z,993.80
2018-02-25T00:50:35.196Z,993.82
2018-02-25T00:51:41.943Z,993.77
2018-02-25T00:52:48.748Z,993.74
2018-02-25T00:53:55.532Z,993.78
2018-02-25T00:55:02.342Z,993.76
2018-02-25T00:56:09.140Z,993.73
2018-02-25T00:57:16.005Z,993.73
2018-02-25T00:58:22.780Z,993.70
2018-02-25T00:59:29.524Z,993.73
2018-02-25T01:00:36.263Z,993.70
2018-02-25T01:01:42.965Z,993.75
2018-02-25T01:02:49.732Z,993.71
2018-02-25T01:03:56.461Z,993.65
2018-02-25T01:05:03.171Z,993.62
2018-02-25T01:06:09.939Z,993.66
2018-02-25T01:07:16.671Z,993.68
2018-02-25T01:08:23.492Z,993.70
2018-02-25T01:09:30.253Z,993.63
2018-02-25T01:10:36.954Z,993.57
2018-02-25T01:11:43.700Z,993.63
2018-02-25T01:12:50.429Z,993.59
2018-02-25T01:13:57.243Z,993.51
2018-02-25T01:15:04.098Z,993.61
2018-02-25T01:16:10.773Z,993.56
2018-02-25T01:17:17.556Z,993.57
2018-02-25T01:18:24.346Z,993.52
2018-02-25T01:19:31.094Z,993.61
2018-02-25T01:20:37.796Z,993.64
2018-02-25T01:21:44.507Z,993.56
2018-02-25T01:22:51.244Z,993.55
2018-02-25T01:23:57.954Z,993.52
2018-02-25T01:25:04.764Z,993.57
2018-02-25T01:26:11.480Z,993.58
2018-02-25T01:27:18.209Z,993.53
2018-02-25T01:28:24.997Z,993.54
2018-02-25T01:29:31.779Z,993.63
2018-02-25T01:30:38.724Z,993.61
2018-02-25T01:31:45.432Z,993.50
2018-02-25T01:32:52.148Z,993.57
2018-02-25T01:33:58.876Z,993.70
2018-02-25T01:35:05.643Z,993.67
2018-02-25T01:36:12.348Z,993.59
2018-02-25T01:37:19.071Z,993.63
2018-02-25T01:38:25.790Z,993.67
2018-02-25T01:39:32.561Z,993.59
2018-02-25T01:40:39.248Z,993.61
2018-02-25T01:41:46.084Z,993.61
2018-02-25T01:42:52.779Z,993.67
2018-02-25T01:43:59.525Z,993.73
2018-02-25T01:45:06.283Z,993.68
2018-02-25T01:46:12.996Z,993.75
2018-02-25T01:47:19.729Z,993.63
2018-02-25T01:48:26.536Z,993.66
2018-02-25T01:49:33.260Z,993.60
2018-02-25T01:50:40.037Z,993.65
2018-02-25T01:51:46.952Z,993.62
2018-02-25T01:52:53.651Z,993.60
2018-02-25T01:54:00.408Z,993.58
2018-02-25T01:55:07.144Z,993.53
2018-02-25T01:56:13.904Z,993.56
2018-02-25T01:57:20.736Z,993.50
2018-02-25T01:58:27.455Z,993.54
2018-02-25T01:59:34.297Z,993.64
2018-02-25T02:00:41.000Z,993.66
2018-02-25T02:01:47.857Z,993.66
2018-02-25T02:02:54.593Z,993.68
2018-02-25T02:04:01.320Z,993.67
2018-02-25T02:05:08.075Z,993.63
2018-02-25T02:06:14.810Z,993.69
2018-02-25T02:07:21.624Z,993.66
2018-02-25T02:08:28.363Z,993.57
2018-02-25T02:09:35.103Z,993.62
2018-02-25T02:10:41.888Z,993.58
2018-02-25T02:11:48.620Z,993.63
2018-02-25T02:12:55.404Z,993.60
2018-02-25T02:14:02.110Z,993.66
2018-02-25T02:15:08.849Z,993.70
2018-02-25T02:16:15.604Z,993.72
2018-02-25T02:17:22.328Z,993.71
2018-02-25T02:18:29.036Z,993.75
2018-02-25T02:19:35.860Z,993.81
2018-02-25T02:20:42.568Z,993.77
2018-02-25T02:21:49.293Z,993.76
2018-02-25T02:22:56.084Z,993.76
2018-02-25T02:24:02.796Z,993.71
2018-02-25T02:25:09.500Z,993.77
2018-02-25T02:26:16.318Z,993.68
2018-02-25T02:27:23.035Z,993.70
2018-02-25T02:28:29.760Z,993.69
2018-02-25T02:29:36.503Z,993.79
2018-02-25T02:30:43.228Z,993.77
2018-02-25T02:31:49.950Z,993.74
2018-02-25T02:32:56.803Z,993.76
2018-02-25T02:34:03.521Z,993.67
2018-02-25T02:35:10.252Z,993.72
2018-02-25T02:36:16.956Z,993.75
2018-02-25T02:37:23.724Z,993.84
2018-02-25T02:38:30.580Z,993.83
2018-02-25T02:39:37.291Z,993.85
2018-02-25T02:40:44.027Z,993.98
2018-02-25T02:41:50.832Z,994.03
2018-02-25T02:42:57.560Z,993.89
2018-02-25T02:44:04.244Z,993.83
2018-02-25T02:45:11.024Z,993.87
2018-02-25T02:46:17.729Z,993.80
2018-02-25T02:47:24.415Z,993.83
2018-02-25T02:48:31.192Z,993.81
2018-02-25T02:49:38.256Z,993.84
2018-02-25T02:50:44.948Z,993.87
2018-02-25T02:51:51.708Z,993.93
2018-02-25T02:52:58.421Z,993.83
2018-02-25T02:54:05.175Z,993.92
2018-02-25T02:55:11.950Z,993.95
2018-02-25T02:56:18.660Z,993.91
2018-02-25T02:57:25.404Z,993.98
2018-02-25T02:58:32.100Z,994.06
2018-02-25T02:59:38.870Z,994.13
2018-02-25T03:00:45.578Z,994.07
2018-02-25T03:01:52.439Z,994.17
2018-02-25T03:02:59.099Z,994.16
2018-02-25T03:04:05.825Z,994.09
2018-02-25T03:05:12.651Z,994.17
2018-02-25T03:06:19.353Z,994.12
2018-02-25T03:07:26.084Z,994.18
2018-02-25T03:08:32.885Z,994.19
2018-02-25T03:09:39.637Z,994.07
2018-02-25T03:10:46.404Z,994.15
2018-02-25T03:11:53.120Z,994.15
2018-02-25T03:12:59.828Z,994.17
2018-02-25T03:14:06.525Z,994.12
2018-02-25T03:15:13.464Z,994.04
2018-02-25T03:16:20.195Z,994.09
2018-02-25T03:17:26.932Z,994.14
2018-02-25T03:18:33.668Z,994.09
2018-02-25T03:19:40.500Z,994.16
2018-02-25T03:20:47.222Z,994.12
2018-02-25T03:21:53.951Z,994.13
2018-02-25T03:23:00.663Z,994.17
2018-02-25T03:24:07.392Z,994.24
2018-02-25T03:25:14.119Z,994.10
2018-02-25T03:26:20.832Z,994.10
2018-02-25T03:27:27.624Z,994.07
2018-02-25T03:28:34.320Z,994.13
2018-02-25T03:29:41.053Z,994.17
2018-02-25T03:30:47.829Z,994.20
2018-02-25T03:31:54.598Z,994.20
2018-02-25T03:33:01.309Z,994.25
2018-02-25T03:34:08.100Z,994.16
2018-02-25T03:35:14.883Z,994.19
2018-02-25T03:36:21.585Z,994.25
2018-02-25T03:37:28.385Z,994.14
2018-02-25T03:38:35.062Z,994.18
2018-02-25T03:39:41.775Z,994.23
2018-02-25T03:40:48.953Z,994.22
2018-02-25T03:41:55.768Z,994.14
2018-02-25T03:43:02.740Z,994.21
2018-02-25T03:44:09.588Z,994.13
2018-02-25T03:45:16.280Z,994.17
2018-02-25T03:46:23.120Z,994.22
2018-02-25T03:47:29.848Z,994.09
2018-02-25T03:48:36.561Z,994.06
2018-02-25T03:49:43.456Z,994.18
2018-02-25T03:50:50.180Z,994.12
2018-02-25T03:51:56.901Z,994.16
2018-02-25T03:53:03.660Z,994.24
2018-02-25T03:54:10.512Z,994.19
2018-02-25T03:55:17.203Z,994.17
2018-02-25T03:56:23.901Z,994.23
2018-02-25T03:57:30.629Z,994.21
2018-02-25T03:58:37.368Z,994.19
2018-02-25T03:59:44.071Z,994.21
2018-02-25T04:00:50.892Z,994.27
2018-02-25T04:01:57.642Z,994.32
2018-02-25T04:03:04.334Z,994.24
2018-02-25T04:04:11.112Z,994.32
2018-02-25T04:05:17.814Z,994.34
2018-02-25T04:06:24.566Z,994.37
2018-02-25T04:07:31.270Z,994.22
2018-02-25T04:08:37.971Z,994.34
2018-02-25T04:09:44.799Z,994.28
2018-02-25T04:10:51.472Z,994.32
2018-02-25T04:11:58.156Z,994.44
2018-02-25T04:13:04.874Z,994.37
2018-02-25T04:14:11.612Z,994.40
2018-02-25T04:15:18.325Z,994.37
2018-02-25T04:16:25.054Z,994.36
2018-02-25T04:17:31.780Z,994.26
2018-02-25T04:17:49.871Z,994.40
2018-02-25T04:18:56.624Z,994.38
2018-02-25T04:20:03.353Z,994.37
2018-02-25T04:21:10.068Z,994.49
2018-02-25T04:22:16.812Z,994.40
2018-02-25T04:23:23.589Z,994.40
2018-02-25T04:24:30.511Z,994.41
2018-02-25T04:25:37.268Z,994.46
2018-02-25T04:26:43.973Z,994.48
2018-02-25T04:27:50.705Z,994.39
2018-02-25T04:28:57.405Z,994.43
2018-02-25T04:30:04.099Z,994.44
2018-02-25T04:31:10.968Z,994.37
2018-02-25T04:32:17.672Z,994.47
2018-02-25T04:33:24.388Z,994.39
2018-02-25T04:34:31.100Z,994.48
2018-02-25T04:35:37.804Z,994.51
2018-02-25T04:36:44.592Z,994.53
2018-02-25T04:37:51.404Z,994.44
2018-02-25T04:38:58.112Z,994.50
2018-02-25T04:40:04.827Z,994.52
2018-02-25T04:41:11.551Z,994.40
2018-02-25T04:42:18.271Z,994.44
2018-02-25T04:43:25.025Z,994.54
2018-02-25T04:44:31.849Z,994.55
2018-02-25T04:45:38.664Z,994.46
2018-02-25T04:46:45.504Z,994.50
2018-02-25T04:47:52.459Z,994.56
2018-02-25T04:48:59.284Z,994.57
2018-02-25T04:50:06.260Z,994.55
2018-02-25T04:51:12.997Z,994.49
2018-02-25T04:52:19.809Z,994.53
2018-02-25T04:53:26.534Z,994.50
2018-02-25T04:54:33.361Z,994.52
2018-02-25T04:55:40.104Z,994.46
2018-02-25T04:56:46.953Z,994.52
2018-02-25T04:57:53.868Z,994.51
2018-02-25T04:59:00.564Z,994.43
2018-02-25T05:00:07.308Z,994.46
2018-02-25T05:01:14.132Z,994.47
2018-02-25T05:02:20.855Z,994.44
2018-02-25T05:03:27.688Z,994.45
2018-02-25T05:04:34.382Z,994.41
2018-02-25T05:05:41.104Z,994.42
2018-02-25T05:06:47.833Z,994.48
2018-02-25T05:07:54.544Z,994.43
2018-02-25T05:09:01.273Z,994.47
2018-02-25T05:10:08.207Z,994.48
2018-02-25T05:11:14.931Z,994.52
2018-02-25T05:12:21.716Z,994.60
2018-02-25T05:13:28.427Z,994.55
2018-02-25T05:14:35.136Z,994.58
2018-02-25T05:15:41.980Z,994.62
2018-02-25T05:16:49.149Z,994.58
2018-02-25T05:17:55.978Z,994.64
2018-02-25T05:19:02.709Z,994.60
2018-02-25T05:20:09.609Z,994.62
2018-02-25T05:21:16.320Z,994.67
2018-02-25T05:22:23.058Z,994.69
2018-02-25T05:23:29.797Z,994.74
2018-02-25T05:24:36.512Z,994.72
2018-02-25T05:25:43.416Z,994.75
2018-02-25T05:26:50.128Z,994.69
2018-02-25T05:27:56.840Z,994.70
2018-02-25T05:29:03.556Z,994.77
2018-02-25T05:30:10.438Z,994.78
2018-02-25T05:31:17.224Z,994.75
2018-02-25T05:32:24.030Z,994.74
2018-02-25T05:33:30.772Z,994.77
2018-02-25T05:34:37.524Z,994.73
2018-02-25T05:35:44.231Z,994.78
2018-02-25T05:36:51.056Z,994.81
2018-02-25T05:37:57.846Z,994.75
2018-02-25T05:39:04.545Z,994.80
2018-02-25T05:40:11.298Z,994.72
2018-02-25T05:41:18.009Z,994.74
2018-02-25T05:42:24.860Z,994.69
2018-02-25T05:43:31.567Z,994.73
2018-02-25T05:44:38.288Z,994.68
2018-02-25T05:45:45.013Z,994.78
2018-02-25T05:46:51.716Z,994.70
2018-02-25T05:47:58.440Z,994.73
2018-02-25T05:49:05.173Z,994.80
2018-02-25T05:50:12.112Z,994.85
2018-02-25T05:51:18.866Z,994.78
2018-02-25T05:52:25.568Z,994.84
2018-02-25T05:53:32.296Z,994.90
2018-02-25T05:54:38.991Z,994.89
2018-02-25T05:55:46.138Z,994.88
2018-02-25T05:56:52.992Z,994.93
2018-02-25T05:57:59.714Z,994.93
2018-02-25T05:59:06.415Z,994.88
2018-02-25T06:00:13.168Z,994.95
2018-02-25T06:01:19.872Z,994.96
2018-02-25T06:02:26.591Z,995.02
2018-02-25T06:03:33.306Z,995.06
2018-02-25T06:04:40.152Z,995.04
2018-02-25T06:05:46.940Z,995.04
2018-02-25T06:06:53.652Z,994.98
2018-02-25T06:08:00.403Z,995.03
2018-02-25T06:09:07.130Z,995.10
2018-02-25T06:10:14.207Z,995.15
2018-02-25T06:11:20.940Z,995.34
2018-02-25T06:12:27.657Z,995.15
2018-02-25T06:13:34.455Z,995.17
2018-02-25T06:14:41.220Z,995.16
2018-02-25T06:15:47.995Z,995.27
2018-02-25T06:16:55.044Z,995.21
2018-02-25T06:18:01.757Z,995.26
2018-02-25T06:19:08.466Z,995.29
2018-02-25T06:20:15.200Z,995.30
2018-02-25T06:21:22.103Z,995.30
2018-02-25T06:22:28.884Z,995.35
2018-02-25T06:23:35.728Z,995.34
2018-02-25T06:24:42.417Z,995.38
2018-02-25T06:25:49.273Z,995.32
2018-02-25T06:26:55.995Z,995.36
2018-02-25T06:28:02.798Z,995.36
2018-02-25T06:29:09.763Z,995.38
2018-02-25T06:30:16.556Z,995.42
2018-02-25T06:31:23.260Z,995.38
2018-02-25T06:32:30.052Z,995.48
2018-02-25T06:33:36.844Z,995.38
2018-02-25T06:34:43.840Z,995.42
2018-02-25T06:35:50.488Z,995.43
2018-02-25T06:36:57.513Z,995.36
2018-02-25T06:38:04.309Z,995.37
2018-02-25T06:39:11.064Z,995.39
2018-02-25T06:40:17.802Z,995.42
2018-02-25T06:41:24.628Z,995.48
2018-02-25T06:42:31.295Z,995.50
2018-02-25T06:43:38.167Z,995.40
2018-02-25T06:44:45.107Z,995.45
2018-02-25T06:45:51.804Z,995.62
2018-02-25T06:46:58.504Z,995.45
2018-02-25T06:48:05.261Z,995.47
2018-02-25T06:49:11.984Z,995.46
2018-02-25T06:50:18.713Z,995.46
2018-02-25T06:51:25.424Z,995.50
2018-02-25T06:52:32.244Z,995.45
2018-02-25T06:53:39.010Z,995.42
2018-02-25T06:54:45.727Z,995.50
2018-02-25T06:55:52.558Z,995.39
2018-02-25T06:56:59.261Z,995.43
2018-02-25T06:58:06.105Z,995.50
2018-02-25T06:59:12.864Z,995.52
2018-02-25T07:00:19.577Z,995.52
2018-02-25T07:01:26.385Z,995.38
2018-02-25T07:02:33.099Z,995.41
2018-02-25T07:03:40.036Z,995.52
2018-02-25T07:04:46.867Z,995.51
2018-02-25T07:05:53.728Z,995.45
2018-02-25T07:07:00.411Z,995.47
2018-02-25T07:08:07.156Z,995.54
2018-02-25T07:09:13.964Z,995.48
2018-02-25T07:10:20.679Z,995.52
2018-02-25T07:11:27.367Z,995.53
2018-02-25T07:12:34.087Z,995.54
2018-02-25T07:13:40.888Z,995.58
2018-02-25T07:14:47.712Z,995.53
2018-02-25T07:15:54.492Z,995.53
2018-02-25T07:17:01.207Z,995.63
2018-02-25T07:18:08.068Z,995.62
2018-02-25T07:19:14.776Z,995.64
2018-02-25T07:20:21.500Z,995.63
2018-02-25T07:21:28.238Z,995.59
2018-02-25T07:22:34.944Z,995.62
2018-02-25T07:23:41.660Z,995.71
2018-02-25T07:24:48.396Z,995.62
2018-02-25T07:25:55.407Z,995.67
2018-02-25T07:27:02.120Z,995.62
2018-02-25T07:28:08.829Z,995.63
2018-02-25T07:29:15.559Z,995.76
2018-02-25T07:30:22.269Z,995.67
2018-02-25T07:31:29.105Z,995.60
2018-02-25T07:32:35.791Z,995.62
2018-02-25T07:33:42.484Z,995.60
2018-02-25T07:34:49.212Z,995.61
2018-02-25T07:35:55.931Z,995.55
2018-02-25T07:37:02.667Z,995.61
2018-02-25T07:38:09.373Z,995.60
2018-02-25T07:39:16.088Z,995.60
2018-02-25T07:40:22.797Z,995.59
2018-02-25T07:41:29.604Z,995.61
2018-02-25T07:42:36.296Z,995.58
2018-02-25T07:43:43.000Z,995.62
2018-02-25T07:44:49.836Z,995.63
2018-02-25T07:45:56.525Z,995.64
2018-02-25T07:47:03.244Z,995.55
2018-02-25T07:48:10.080Z,995.64
2018-02-25T07:49:16.781Z,995.58
2018-02-25T07:50:23.498Z,995.54
2018-02-25T07:51:30.226Z,995.56
2018-02-25T07:52:36.950Z,995.58
2018-02-25T07:53:43.681Z,995.65
2018-02-25T07:54:50.405Z,995.56
2018-02-25T07:55:57.167Z,995.71
2018-02-25T07:57:03.966Z,995.66
2018-02-25T07:58:10.702Z,995.55
2018-02-25T07:59:17.428Z,995.57
2018-02-25T08:00:24.220Z,995.64
2018-02-25T08:01:31.111Z,995.63
2018-02-25T08:02:37.824Z,995.66
2018-02-25T08:03:44.559Z,995.61
2018-02-25T08:04:51.260Z,995.62
2018-02-25T08:05:58.008Z,995.68
2018-02-25T08:07:04.746Z,995.62
2018-02-25T08:08:11.583Z,995.80
2018-02-25T08:09:18.284Z,995.74
2018-02-25T08:10:24.984Z,995.67
2018-02-25T08:11:31.825Z,995.71
2018-02-25T08:12:38.517Z,995.65
2018-02-25T08:13:45.247Z,995.69
2018-02-25T08:14:51.922Z,995.68
2018-02-25T08:15:58.765Z,995.70
2018-02-25T08:17:14.620Z,995.64
2018-02-25T08:18:12.331Z,995.71
2018-02-25T08:19:19.040Z,995.74
2018-02-25T08:20:25.931Z,995.68
2018-02-25T08:21:32.655Z,995.69
2018-02-25T08:22:39.388Z,995.83
2018-02-25T08:23:46.144Z,995.82
2018-02-25T08:24:52.884Z,995.68
2018-02-25T08:25:59.606Z,995.95
2018-02-25T08:27:06.318Z,995.99
2018-02-25T08:28:13.169Z,995.88
2018-02-25T08:29:19.864Z,995.88
2018-02-25T08:30:26.568Z,995.92
2018-02-25T08:31:33.289Z,996.07
2018-02-25T08:32:40.077Z,995.93
2018-02-25T08:33:46.794Z,995.96
2018-02-25T08:34:53.506Z,995.96
2018-02-25T08:36:00.434Z,996.06
2018-02-25T08:37:07.124Z,995.98
2018-02-25T08:38:13.863Z,996.01
2018-02-25T08:39:20.576Z,996.02
2018-02-25T08:40:27.315Z,996.11
2018-02-25T08:41:33.996Z,996.01
2018-02-25T08:42:40.741Z,996.04
2018-02-25T08:43:47.595Z,996.04
2018-02-25T08:44:54.308Z,996.21
2018-02-25T08:46:01.044Z,996.06
2018-02-25T08:47:07.747Z,996.15
2018-02-25T08:48:14.509Z,996.10
2018-02-25T08:49:21.221Z,996.20
2018-02-25T08:50:28.040Z,996.14
2018-02-25T08:51:34.734Z,996.14
2018-02-25T08:52:41.547Z,996.10
2018-02-25T08:53:48.325Z,996.13
2018-02-25T08:54:55.285Z,996.10
2018-02-25T08:56:02.424Z,996.07
2018-02-25T08:57:09.020Z,996.11
2018-02-25T08:58:15.826Z,996.09
2018-02-25T08:59:22.855Z,996.09
2018-02-25T09:00:29.849Z,996.17
2018-02-25T09:01:36.691Z,996.13
2018-02-25T09:02:43.468Z,996.17
2018-02-25T09:03:50.307Z,996.14
2018-02-25T09:04:57.176Z,996.09
2018-02-25T09:06:03.887Z,996.16
2018-02-25T09:07:10.727Z,996.15
2018-02-25T09:08:17.674Z,996.08
2018-02-25T09:09:24.452Z,996.09
2018-02-25T09:10:31.359Z,996.16
2018-02-25T09:11:43.392Z,996.19
2018-02-25T09:12:45.124Z,996.18
2018-02-25T09:13:52.133Z,996.18
2018-02-25T09:14:58.922Z,996.07
2018-02-25T09:16:05.816Z,996.11
2018-02-25T09:17:12.750Z,996.11
2018-02-25T09:18:19.462Z,996.08
2018-02-25T09:19:26.334Z,996.07
2018-02-25T09:20:33.037Z,996.09
2018-02-25T09:21:39.748Z,996.09
2018-02-25T09:22:46.557Z,996.18
2018-02-25T09:23:53.401Z,996.21
2018-02-25T09:25:00.184Z,996.16
2018-02-25T09:26:06.972Z,996.14
2018-02-25T09:27:14.152Z,996.23
2018-02-25T09:28:20.969Z,996.20
2018-02-25T09:29:28.003Z,996.23
2018-02-25T09:30:34.765Z,996.24
2018-02-25T09:31:41.523Z,996.21
2018-02-25T09:32:48.319Z,996.30
2018-02-25T09:33:55.052Z,996.18
2018-02-25T09:35:02.103Z,996.23
2018-02-25T09:36:08.800Z,996.11
2018-02-25T09:37:15.881Z,996.16
2018-02-25T09:38:22.584Z,996.20
2018-02-25T09:39:29.468Z,996.29
2018-02-25T09:40:36.330Z,996.36
2018-02-25T09:41:43.004Z,996.22
2018-02-25T09:42:49.717Z,996.19
2018-02-25T09:43:56.432Z,996.27
2018-02-25T09:45:03.160Z,996.31
2018-02-25T09:46:09.880Z,996.23
2018-02-25T09:47:16.601Z,996.27
2018-02-25T09:48:23.384Z,996.17
2018-02-25T09:49:30.214Z,996.34
2018-02-25T09:50:36.939Z,996.40
2018-02-25T09:51:43.909Z,996.25
2018-02-25T09:52:50.612Z,996.28
2018-02-25T09:53:57.297Z,996.12
2018-02-25T09:55:04.012Z,996.30
2018-02-25T09:56:10.831Z,996.25
2018-02-25T09:57:17.612Z,996.22
2018-02-25T09:58:24.359Z,996.27
2018-02-25T09:59:31.083Z,996.32
2018-02-25T10:00:37.804Z,996.32
2018-02-25T10:01:44.524Z,996.37
2018-02-25T10:02:51.373Z,996.32
2018-02-25T10:03:58.069Z,996.32
2018-02-25T10:05:04.772Z,996.22
2018-02-25T10:06:11.486Z,996.31
2018-02-25T10:07:18.204Z,996.27
2018-02-25T10:08:24.944Z,996.18
2018-02-25T10:09:31.654Z,996.11
2018-02-25T10:10:38.356Z,996.17
2018-02-25T10:11:45.204Z,996.13
2018-02-25T10:12:51.908Z,996.24
2018-02-25T10:13:58.626Z,996.20
2018-02-25T10:15:05.330Z,996.23
2018-02-25T10:16:12.080Z,996.17
2018-02-25T10:17:18.831Z,996.11
2018-02-25T10:18:25.585Z,996.02
2018-02-25T10:19:32.315Z,996.07
2018-02-25T10:20:39.247Z,996.17
2018-02-25T10:21:45.971Z,996.12
2018-02-25T10:22:52.692Z,996.08
2018-02-25T10:23:59.491Z,996.07
2018-02-25T10:25:06.224Z,996.02
2018-02-25T10:26:12.953Z,996.05
2018-02-25T10:27:19.685Z,996.08
2018-02-25T10:28:26.414Z,996.09
2018-02-25T10:29:33.152Z,996.15
2018-02-25T10:30:39.946Z,996.02
2018-02-25T10:31:47.014Z,996.10
2018-02-25T10:32:53.812Z,996.17
2018-02-25T10:34:00.552Z,996.11
2018-02-25T10:35:07.286Z,996.20
2018-02-25T10:36:14.024Z,996.18
2018-02-25T10:37:20.723Z,996.17
2018-02-25T10:38:27.469Z,996.14
2018-02-25T10:39:34.249Z,996.18
2018-02-25T10:40:40.948Z,996.03
2018-02-25T10:41:47.657Z,996.06
2018-02-25T10:42:54.419Z,996.01
2018-02-25T10:44:01.168Z,996.05
2018-02-25T10:45:07.881Z,996.04
2018-02-25T10:46:14.716Z,996.08
2018-02-25T10:47:21.424Z,996.00
2018-02-25T10:48:28.152Z,996.04
2018-02-25T10:49:34.873Z,996.11
2018-02-25T10:50:41.680Z,995.92
2018-02-25T10:51:48.479Z,996.02
2018-02-25T10:52:55.168Z,996.10
2018-02-25T10:54:01.917Z,995.99
2018-02-25T10:55:08.627Z,995.80
2018-02-25T10:56:15.386Z,995.88
2018-02-25T10:57:22.307Z,995.82
2018-02-25T10:58:29.108Z,995.82
2018-02-25T10:59:35.824Z,995.83
2018-02-25T11:00:42.561Z,995.93
2018-02-25T11:01:49.329Z,995.86
2018-02-25T11:02:56.111Z,995.79
2018-02-25T11:04:02.819Z,995.83
2018-02-25T11:05:09.580Z,995.82
2018-02-25T11:06:16.312Z,995.73
2018-02-25T11:07:23.025Z,995.76
2018-02-25T11:08:29.752Z,995.95
2018-02-25T11:09:36.581Z,995.86
2018-02-25T11:10:43.352Z,995.83
2018-02-25T11:11:50.109Z,995.98
2018-02-25T11:12:56.856Z,995.81
2018-02-25T11:14:03.588Z,995.85
2018-02-25T11:15:10.475Z,995.79
2018-02-25T11:16:17.287Z,995.77
2018-02-25T11:17:24.097Z,995.70
2018-02-25T11:18:30.921Z,995.73
2018-02-25T11:19:37.705Z,995.75
2018-02-25T11:20:44.542Z,995.65
2018-02-25T11:21:51.474Z,995.69
2018-02-25T11:22:58.247Z,995.73
2018-02-25T11:24:05.049Z,995.72
2018-02-25T11:25:11.929Z,995.81
2018-02-25T11:26:18.748Z,995.64
2018-02-25T11:27:25.560Z,995.74
2018-02-25T11:28:32.412Z,995.81
2018-02-25T11:29:39.160Z,995.58
2018-02-25T11:30:45.985Z,995.57
2018-02-25T11:31:52.879Z,995.72
2018-02-25T11:32:59.669Z,995.72
2018-02-25T11:34:06.456Z,995.82
2018-02-25T11:35:13.386Z,995.77
2018-02-25T11:36:20.411Z,995.70
2018-02-25T11:37:27.225Z,995.88
2018-02-25T11:38:34.107Z,995.75
2018-02-25T11:39:40.868Z,995.68
2018-02-25T11:40:47.718Z,995.68
2018-02-25T11:41:54.509Z,995.71
2018-02-25T11:43:01.276Z,995.75
2018-02-25T11:44:08.209Z,995.69
2018-02-25T11:45:15.055Z,995.71
2018-02-25T11:46:22.175Z,995.61
2018-02-25T11:47:29.141Z,995.61
2018-02-25T11:48:35.994Z,995.64
2018-02-25T11:49:43.704Z,995.66
2018-02-25T11:50:50.051Z,995.63
2018-02-25T11:51:56.863Z,995.79
2018-02-25T11:53:03.674Z,995.69
2018-02-25T11:54:10.513Z,995.72
2018-02-25T11:55:17.351Z,995.72
2018-02-25T11:56:24.064Z,995.62
2018-02-25T11:57:30.967Z,995.54
2018-02-25T11:58:37.784Z,995.57
2018-02-25T11:59:44.589Z,995.46
2018-02-25T12:00:51.480Z,995.59
2018-02-25T12:01:58.314Z,995.58
2018-02-25T12:03:05.091Z,995.46
2018-02-25T12:04:11.876Z,995.57
2018-02-25T12:05:18.677Z,995.49
2018-02-25T12:06:25.558Z,995.48
2018-02-25T12:07:32.355Z,995.41
2018-02-25T12:08:39.074Z,995.39
2018-02-25T12:09:45.804Z,995.43
2018-02-25T12:10:52.540Z,995.42
2018-02-25T12:11:59.225Z,995.33
2018-02-25T12:13:05.937Z,995.37
2018-02-25T12:14:12.787Z,995.51
2018-02-25T12:15:19.621Z,995.39
2018-02-25T12:16:26.349Z,995.31
2018-02-25T12:17:33.059Z,995.32
2018-02-25T12:18:39.863Z,995.37
2018-02-25T12:19:46.584Z,995.33
2018-02-25T12:20:53.301Z,995.42
2018-02-25T12:22:00.073Z,995.37
2018-02-25T12:23:06.779Z,995.26
2018-02-25T12:24:13.579Z,995.27
2018-02-25T12:25:20.329Z,995.35
2018-02-25T12:26:27.040Z,995.30
2018-02-25T12:27:33.844Z,995.20
2018-02-25T12:28:40.668Z,995.17
2018-02-25T12:29:47.399Z,995.21
2018-02-25T12:30:54.166Z,995.12
2018-02-25T12:32:00.885Z,995.14
2018-02-25T12:33:07.604Z,995.25
2018-02-25T12:34:14.379Z,995.10
2018-02-25T12:35:21.161Z,995.16
2018-02-25T12:36:27.888Z,995.06
2018-02-25T12:37:34.579Z,995.12
2018-02-25T12:38:41.315Z,995.15
2018-02-25T12:39:48.095Z,995.15
2018-02-25T12:40:54.819Z,995.21
2018-02-25T12:42:01.541Z,995.13
2018-02-25T12:43:08.256Z,995.07
2018-02-25T12:44:15.000Z,995.18
2018-02-25T12:45:21.866Z,995.10
2018-02-25T12:46:28.571Z,995.15
2018-02-25T12:47:35.300Z,995.17
2018-02-25T12:48:42.005Z,995.09
2018-02-25T12:49:48.730Z,995.15
2018-02-25T12:50:55.465Z,995.15
2018-02-25T12:52:02.252Z,995.06
2018-02-25T12:53:09.039Z,995.07
2018-02-25T12:54:15.892Z,995.10
2018-02-25T12:55:22.831Z,995.10
2018-02-25T12:56:29.657Z,995.02
2018-02-25T12:57:36.386Z,994.95
2018-02-25T12:58:43.177Z,995.03
2018-02-25T12:59:49.955Z,995.04
2018-02-25T13:00:56.683Z,995.01
2018-02-25T13:02:03.415Z,994.98
2018-02-25T13:03:10.232Z,994.96
2018-02-25T13:04:16.953Z,994.98
2018-02-25T13:05:23.772Z,995.04
2018-02-25T13:06:30.716Z,995.03
2018-02-25T13:07:37.452Z,995.04
2018-02-25T13:08:44.181Z,995.04
2018-02-25T13:09:50.921Z,995.02
2018-02-25T13:10:58.079Z,995.00
2018-02-25T13:12:04.848Z,995.05
2018-02-25T13:13:11.647Z,995.03
2018-02-25T13:14:18.324Z,995.00
2018-02-25T13:15:25.179Z,995.03
2018-02-25T13:16:31.893Z,994.97
2018-02-25T13:17:38.728Z,994.92
2018-02-25T13:18:45.536Z,994.94
2018-02-25T13:19:52.252Z,994.87
2018-02-25T13:20:58.973Z,994.86
2018-02-25T13:22:05.946Z,994.90
2018-02-25T13:23:12.740Z,994.82
2018-02-25T13:24:19.456Z,994.82
2018-02-25T13:25:26.257Z,994.96
2018-02-25T13:26:33.051Z,994.99
2018-02-25T13:27:39.786Z,994.94
2018-02-25T13:28:46.495Z,994.89
2018-02-25T13:29:53.328Z,994.89
2018-02-25T13:31:00.005Z,994.93
2018-02-25T13:32:06.745Z,994.88
2018-02-25T13:33:13.510Z,994.82
2018-02-25T13:34:20.277Z,994.91
2018-02-25T13:35:27.024Z,994.78
2018-02-25T13:36:33.724Z,994.81
2018-02-25T13:37:40.452Z,994.84
2018-02-25T13:38:47.217Z,994.80
2018-02-25T13:39:54.096Z,994.81
2018-02-25T13:41:00.831Z,994.76
2018-02-25T13:42:07.548Z,994.67
2018-02-25T13:43:14.276Z,994.68
2018-02-25T13:44:21.030Z,994.79
2018-02-25T13:45:27.768Z,994.74
2018-02-25T13:46:34.557Z,994.80
2018-02-25T13:47:41.609Z,994.68
2018-02-25T13:48:48.384Z,994.72
2018-02-25T13:49:55.143Z,994.70
2018-02-25T13:51:01.988Z,994.79
2018-02-25T13:52:08.747Z,994.67